sensor_id;sensor_type;location;lat;lon;timestamp;temperature;humidity
43697;DHT22;29301;47.620;19.560;2023-06-24T00:01:25;20.70;97.00
43697;DHT22;29301;47.620;19.560;2023-06-24T00:03:51;20.70;96.80
43697;DHT22;29301;47.620;19.560;2023-06-24T00:06:19;20.70;96.70
43697;DHT22;29301;47.620;19.560;2023-06-24T00:08:45;20.70;96.50
43697;DHT22;29301;47.620;19.560;2023-06-24T00:11:11;20.70;96.50
43697;DHT22;29301;47.620;19.560;2023-06-24T00:13:38;20.80;96.10
43697;DHT22;29301;47.620;19.560;2023-06-24T00:16:04;20.80;96.00
43697;DHT22;29301;47.620;19.560;2023-06-24T00:18:32;20.90;95.30
43697;DHT22;29301;47.620;19.560;2023-06-24T00:20:58;20.80;95.00
43697;DHT22;29301;47.620;19.560;2023-06-24T00:23:23;20.80;94.90
43697;DHT22;29301;47.620;19.560;2023-06-24T00:25:51;20.80;94.80
43697;DHT22;29301;47.620;19.560;2023-06-24T00:28:17;20.80;95.10
43697;DHT22;29301;47.620;19.560;2023-06-24T00:30:42;20.70;95.20
43697;DHT22;29301;47.620;19.560;2023-06-24T00:33:08;20.70;95.10
43697;DHT22;29301;47.620;19.560;2023-06-24T00:35:36;20.80;95.20
43697;DHT22;29301;47.620;19.560;2023-06-24T00:38:03;20.70;95.30
43697;DHT22;29301;47.620;19.560;2023-06-24T00:40:29;20.60;95.70
43697;DHT22;29301;47.620;19.560;2023-06-24T00:42:55;20.50;96.20
43697;DHT22;29301;47.620;19.560;2023-06-24T00:45:22;20.50;96.40
43697;DHT22;29301;47.620;19.560;2023-06-24T00:47:48;20.40;96.90
43697;DHT22;29301;47.620;19.560;2023-06-24T00:50:17;20.40;97.70
43697;DHT22;29301;47.620;19.560;2023-06-24T00:52:43;20.50;97.70
43697;DHT22;29301;47.620;19.560;2023-06-24T00:55:11;20.30;98.80
43697;DHT22;29301;47.620;19.560;2023-06-24T00:57:42;20.10;99.50
43697;DHT22;29301;47.620;19.560;2023-06-24T01:00:08;20.10;99.90
43697;DHT22;29301;47.620;19.560;2023-06-24T01:02:40;20.20;99.90
43697;DHT22;29301;47.620;19.560;2023-06-24T01:05:08;20.30;98.20
43697;DHT22;29301;47.620;19.560;2023-06-24T01:07:35;20.40;98.40
43697;DHT22;29301;47.620;19.560;2023-06-24T01:10:05;20.30;97.60
43697;DHT22;29301;47.620;19.560;2023-06-24T01:12:38;20.30;98.70
43697;DHT22;29301;47.620;19.560;2023-06-24T01:15:06;20.30;99.30
43697;DHT22;29301;47.620;19.560;2023-06-24T01:18:05;20.40;99.30
43697;DHT22;29301;47.620;19.560;2023-06-24T01:27:03;20.80;95.40
43697;DHT22;29301;47.620;19.560;2023-06-24T01:32:37;20.80;95.20
43697;DHT22;29301;47.620;19.560;2023-06-24T01:35:10;20.90;94.80
43697;DHT22;29301;47.620;19.560;2023-06-24T01:37:48;20.90;93.90
43697;DHT22;29301;47.620;19.560;2023-06-24T01:40:40;20.80;94.60
43697;DHT22;29301;47.620;19.560;2023-06-24T01:43:08;20.80;94.50
43697;DHT22;29301;47.620;19.560;2023-06-24T01:45:42;20.80;95.10
43697;DHT22;29301;47.620;19.560;2023-06-24T01:48:25;20.80;94.20
43697;DHT22;29301;47.620;19.560;2023-06-24T01:51:07;20.70;93.60
43697;DHT22;29301;47.620;19.560;2023-06-24T01:53:39;20.70;93.70
43697;DHT22;29301;47.620;19.560;2023-06-24T01:56:10;20.80;93.60
43697;DHT22;29301;47.620;19.560;2023-06-24T01:58:36;20.80;93.70
43697;DHT22;29301;47.620;19.560;2023-06-24T02:01:04;20.80;93.80
43697;DHT22;29301;47.620;19.560;2023-06-24T02:03:31;20.70;94.00
43697;DHT22;29301;47.620;19.560;2023-06-24T02:05:59;20.50;95.30
43697;DHT22;29301;47.620;19.560;2023-06-24T02:08:29;20.20;97.30
43697;DHT22;29301;47.620;19.560;2023-06-24T02:10:55;20.00;98.50
43697;DHT22;29301;47.620;19.560;2023-06-24T02:13:23;20.10;99.50
43697;DHT22;29301;47.620;19.560;2023-06-24T02:15:50;20.20;99.10
43697;DHT22;29301;47.620;19.560;2023-06-24T02:18:17;20.20;98.60
43697;DHT22;29301;47.620;19.560;2023-06-24T02:20:46;20.20;97.70
43697;DHT22;29301;47.620;19.560;2023-06-24T02:23:13;20.10;98.30
43697;DHT22;29301;47.620;19.560;2023-06-24T02:25:40;20.10;98.70
43697;DHT22;29301;47.620;19.560;2023-06-24T02:28:08;20.30;98.00
43697;DHT22;29301;47.620;19.560;2023-06-24T02:30:38;20.30;97.30
43697;DHT22;29301;47.620;19.560;2023-06-24T02:33:04;20.40;96.00
43697;DHT22;29301;47.620;19.560;2023-06-24T02:35:30;20.50;95.00
43697;DHT22;29301;47.620;19.560;2023-06-24T02:37:56;20.50;94.40
43697;DHT22;29301;47.620;19.560;2023-06-24T02:40:22;20.40;93.80
43697;DHT22;29301;47.620;19.560;2023-06-24T02:42:47;20.50;93.60
43697;DHT22;29301;47.620;19.560;2023-06-24T02:45:14;20.50;93.30
43697;DHT22;29301;47.620;19.560;2023-06-24T02:47:42;20.50;93.00
43697;DHT22;29301;47.620;19.560;2023-06-24T02:50:09;20.50;92.70
43697;DHT22;29301;47.620;19.560;2023-06-24T02:52:35;20.50;92.20
43697;DHT22;29301;47.620;19.560;2023-06-24T02:55:03;20.40;93.00
43697;DHT22;29301;47.620;19.560;2023-06-24T02:57:30;20.40;93.10
43697;DHT22;29301;47.620;19.560;2023-06-24T02:59:55;20.40;93.00
43697;DHT22;29301;47.620;19.560;2023-06-24T03:02:22;20.40;93.00
43697;DHT22;29301;47.620;19.560;2023-06-24T03:04:50;20.40;92.70
43697;DHT22;29301;47.620;19.560;2023-06-24T03:07:16;20.40;92.80
43697;DHT22;29301;47.620;19.560;2023-06-24T03:09:46;20.40;92.80
43697;DHT22;29301;47.620;19.560;2023-06-24T03:12:12;20.40;92.80
43697;DHT22;29301;47.620;19.560;2023-06-24T03:14:37;20.40;92.70
43697;DHT22;29301;47.620;19.560;2023-06-24T03:17:03;20.50;92.80
43697;DHT22;29301;47.620;19.560;2023-06-24T03:19:29;20.40;92.90
43697;DHT22;29301;47.620;19.560;2023-06-24T03:21:55;20.50;92.80
43697;DHT22;29301;47.620;19.560;2023-06-24T03:24:20;20.50;92.60
43697;DHT22;29301;47.620;19.560;2023-06-24T03:26:46;20.40;92.20
43697;DHT22;29301;47.620;19.560;2023-06-24T03:29:12;20.40;92.10
43697;DHT22;29301;47.620;19.560;2023-06-24T03:31:38;20.30;92.20
43697;DHT22;29301;47.620;19.560;2023-06-24T03:34:09;20.20;92.60
43697;DHT22;29301;47.620;19.560;2023-06-24T03:36:35;20.10;93.10
43697;DHT22;29301;47.620;19.560;2023-06-24T03:39:04;20.00;93.50
43697;DHT22;29301;47.620;19.560;2023-06-24T03:41:29;20.00;93.90
43697;DHT22;29301;47.620;19.560;2023-06-24T03:43:55;20.00;93.80
43697;DHT22;29301;47.620;19.560;2023-06-24T03:46:21;20.00;93.70
43697;DHT22;29301;47.620;19.560;2023-06-24T03:48:47;19.90;94.20
43697;DHT22;29301;47.620;19.560;2023-06-24T03:51:13;19.90;94.10
43697;DHT22;29301;47.620;19.560;2023-06-24T03:53:38;19.90;94.10
43697;DHT22;29301;47.620;19.560;2023-06-24T03:56:04;19.80;93.50
43697;DHT22;29301;47.620;19.560;2023-06-24T03:58:30;19.80;93.50
43697;DHT22;29301;47.620;19.560;2023-06-24T04:00:58;19.80;93.50
43697;DHT22;29301;47.620;19.560;2023-06-24T04:03:24;19.80;93.20
43697;DHT22;29301;47.620;19.560;2023-06-24T04:05:55;19.70;93.20
43697;DHT22;29301;47.620;19.560;2023-06-24T04:08:22;19.70;93.30
43697;DHT22;29301;47.620;19.560;2023-06-24T04:10:47;19.70;92.90
43697;DHT22;29301;47.620;19.560;2023-06-24T04:13:13;19.60;93.20
43697;DHT22;29301;47.620;19.560;2023-06-24T04:15:39;19.60;93.20
43697;DHT22;29301;47.620;19.560;2023-06-24T04:18:04;19.60;93.10
43697;DHT22;29301;47.620;19.560;2023-06-24T04:20:30;19.60;93.00
43697;DHT22;29301;47.620;19.560;2023-06-24T04:22:57;19.60;92.30
43697;DHT22;29301;47.620;19.560;2023-06-24T04:25:23;19.60;91.60
43697;DHT22;29301;47.620;19.560;2023-06-24T04:27:49;19.60;91.70
43697;DHT22;29301;47.620;19.560;2023-06-24T04:30:14;19.60;91.80
43697;DHT22;29301;47.620;19.560;2023-06-24T04:32:40;19.70;91.40
43697;DHT22;29301;47.620;19.560;2023-06-24T04:35:06;19.70;90.80
43697;DHT22;29301;47.620;19.560;2023-06-24T04:37:32;19.80;90.20
43697;DHT22;29301;47.620;19.560;2023-06-24T04:39:58;19.80;89.10
43697;DHT22;29301;47.620;19.560;2023-06-24T04:42:23;19.70;88.30
43697;DHT22;29301;47.620;19.560;2023-06-24T04:44:49;19.80;88.80
43697;DHT22;29301;47.620;19.560;2023-06-24T04:47:17;19.90;88.50
43697;DHT22;29301;47.620;19.560;2023-06-24T04:49:43;19.80;87.80
43697;DHT22;29301;47.620;19.560;2023-06-24T04:52:10;19.70;88.20
43697;DHT22;29301;47.620;19.560;2023-06-24T04:54:36;19.80;88.10
43697;DHT22;29301;47.620;19.560;2023-06-24T04:57:02;19.70;86.50
43697;DHT22;29301;47.620;19.560;2023-06-24T04:59:28;19.70;87.70
43697;DHT22;29301;47.620;19.560;2023-06-24T05:01:53;19.60;88.30
43697;DHT22;29301;47.620;19.560;2023-06-24T05:04:19;19.60;87.20
43697;DHT22;29301;47.620;19.560;2023-06-24T05:06:44;19.60;88.00
43697;DHT22;29301;47.620;19.560;2023-06-24T05:09:10;19.60;87.80
43697;DHT22;29301;47.620;19.560;2023-06-24T05:11:42;19.50;88.60
43697;DHT22;29301;47.620;19.560;2023-06-24T05:14:08;19.50;88.80
43697;DHT22;29301;47.620;19.560;2023-06-24T05:16:34;19.50;90.00
43697;DHT22;29301;47.620;19.560;2023-06-24T05:19:00;19.60;89.90
43697;DHT22;29301;47.620;19.560;2023-06-24T05:21:25;19.70;89.40
43697;DHT22;29301;47.620;19.560;2023-06-24T05:23:51;19.80;86.90
43697;DHT22;29301;47.620;19.560;2023-06-24T05:26:16;19.90;85.70
43697;DHT22;29301;47.620;19.560;2023-06-24T05:28:42;19.90;84.60
43697;DHT22;29301;47.620;19.560;2023-06-24T05:31:08;19.90;85.00
43697;DHT22;29301;47.620;19.560;2023-06-24T05:33:33;19.90;85.00
43697;DHT22;29301;47.620;19.560;2023-06-24T05:35:59;20.00;85.60
43697;DHT22;29301;47.620;19.560;2023-06-24T05:38:24;20.10;85.40
43697;DHT22;29301;47.620;19.560;2023-06-24T05:40:50;20.20;85.40
43697;DHT22;29301;47.620;19.560;2023-06-24T05:43:16;20.30;85.90
43697;DHT22;29301;47.620;19.560;2023-06-24T05:45:41;20.40;83.50
43697;DHT22;29301;47.620;19.560;2023-06-24T05:48:07;20.50;82.40
43697;DHT22;29301;47.620;19.560;2023-06-24T05:50:33;20.50;82.00
43697;DHT22;29301;47.620;19.560;2023-06-24T05:52:58;20.70;82.10
43697;DHT22;29301;47.620;19.560;2023-06-24T05:55:24;20.80;79.60
43697;DHT22;29301;47.620;19.560;2023-06-24T05:57:50;20.80;79.10
43697;DHT22;29301;47.620;19.560;2023-06-24T06:00:17;20.90;78.20
43697;DHT22;29301;47.620;19.560;2023-06-24T06:02:43;20.90;77.50
43697;DHT22;29301;47.620;19.560;2023-06-24T06:05:09;21.00;78.40
43697;DHT22;29301;47.620;19.560;2023-06-24T06:07:34;21.10;77.90
43697;DHT22;29301;47.620;19.560;2023-06-24T06:10:03;21.20;76.10
43697;DHT22;29301;47.620;19.560;2023-06-24T06:12:29;21.30;75.20
43697;DHT22;29301;47.620;19.560;2023-06-24T06:14:54;21.50;74.00
43697;DHT22;29301;47.620;19.560;2023-06-24T06:17:20;21.60;73.60
43697;DHT22;29301;47.620;19.560;2023-06-24T06:19:46;21.80;73.30
43697;DHT22;29301;47.620;19.560;2023-06-24T06:22:12;21.90;71.90
43697;DHT22;29301;47.620;19.560;2023-06-24T06:24:39;21.90;69.70
43697;DHT22;29301;47.620;19.560;2023-06-24T06:27:09;22.00;70.00
43697;DHT22;29301;47.620;19.560;2023-06-24T06:29:34;22.10;70.00
43697;DHT22;29301;47.620;19.560;2023-06-24T06:32:00;22.20;70.40
43697;DHT22;29301;47.620;19.560;2023-06-24T06:34:26;22.30;70.60
43697;DHT22;29301;47.620;19.560;2023-06-24T06:36:51;22.40;69.60
43697;DHT22;29301;47.620;19.560;2023-06-24T06:39:17;22.50;69.40
43697;DHT22;29301;47.620;19.560;2023-06-24T06:41:43;22.60;67.90
43697;DHT22;29301;47.620;19.560;2023-06-24T06:44:08;22.60;67.80
43697;DHT22;29301;47.620;19.560;2023-06-24T06:46:34;22.60;67.90
43697;DHT22;29301;47.620;19.560;2023-06-24T06:48:59;22.50;68.10
43697;DHT22;29301;47.620;19.560;2023-06-24T06:51:25;22.60;67.50
43697;DHT22;29301;47.620;19.560;2023-06-24T06:53:51;22.60;66.80
43697;DHT22;29301;47.620;19.560;2023-06-24T06:56:24;22.70;67.70
43697;DHT22;29301;47.620;19.560;2023-06-24T06:58:50;22.90;67.10
43697;DHT22;29301;47.620;19.560;2023-06-24T07:01:17;23.00;65.70
43697;DHT22;29301;47.620;19.560;2023-06-24T07:03:43;23.20;66.10
43697;DHT22;29301;47.620;19.560;2023-06-24T07:06:09;23.30;64.00
43697;DHT22;29301;47.620;19.560;2023-06-24T07:08:34;23.20;63.80
43697;DHT22;29301;47.620;19.560;2023-06-24T07:11:01;23.20;64.30
43697;DHT22;29301;47.620;19.560;2023-06-24T07:13:27;23.30;63.50
43697;DHT22;29301;47.620;19.560;2023-06-24T07:15:53;23.30;63.00
43697;DHT22;29301;47.620;19.560;2023-06-24T07:18:18;23.50;63.50
43697;DHT22;29301;47.620;19.560;2023-06-24T07:20:44;23.50;63.10
43697;DHT22;29301;47.620;19.560;2023-06-24T07:23:10;23.60;62.10
43697;DHT22;29301;47.620;19.560;2023-06-24T07:25:36;23.80;62.40
43697;DHT22;29301;47.620;19.560;2023-06-24T07:28:02;24.00;61.40
43697;DHT22;29301;47.620;19.560;2023-06-24T07:30:28;24.30;60.30
43697;DHT22;29301;47.620;19.560;2023-06-24T07:32:54;24.40;58.30
43697;DHT22;29301;47.620;19.560;2023-06-24T07:35:19;24.50;57.90
43697;DHT22;29301;47.620;19.560;2023-06-24T07:37:45;24.80;57.60
43697;DHT22;29301;47.620;19.560;2023-06-24T07:40:11;25.00;57.50
43697;DHT22;29301;47.620;19.560;2023-06-24T07:42:37;25.00;55.00
43697;DHT22;29301;47.620;19.560;2023-06-24T07:45:03;25.00;55.40
43697;DHT22;29301;47.620;19.560;2023-06-24T07:47:28;25.10;55.40
43697;DHT22;29301;47.620;19.560;2023-06-24T07:49:54;25.40;55.30
43697;DHT22;29301;47.620;19.560;2023-06-24T07:52:20;25.40;55.90
43697;DHT22;29301;47.620;19.560;2023-06-24T07:54:45;25.50;55.50
43697;DHT22;29301;47.620;19.560;2023-06-24T07:57:11;25.60;55.80
43697;DHT22;29301;47.620;19.560;2023-06-24T07:59:37;25.80;54.80
43697;DHT22;29301;47.620;19.560;2023-06-24T08:02:02;26.00;53.10
43697;DHT22;29301;47.620;19.560;2023-06-24T08:04:28;26.10;52.70
43697;DHT22;29301;47.620;19.560;2023-06-24T08:06:54;26.20;53.00
43697;DHT22;29301;47.620;19.560;2023-06-24T08:09:19;26.40;52.00
43697;DHT22;29301;47.620;19.560;2023-06-24T08:11:45;26.50;51.60
43697;DHT22;29301;47.620;19.560;2023-06-24T08:14:11;26.70;52.30
43697;DHT22;29301;47.620;19.560;2023-06-24T08:16:37;26.80;52.00
43697;DHT22;29301;47.620;19.560;2023-06-24T08:19:03;26.80;51.40
43697;DHT22;29301;47.620;19.560;2023-06-24T08:21:28;26.80;50.80
43697;DHT22;29301;47.620;19.560;2023-06-24T08:23:55;26.80;50.10
43697;DHT22;29301;47.620;19.560;2023-06-24T08:26:21;26.80;49.70
43697;DHT22;29301;47.620;19.560;2023-06-24T08:28:47;26.90;50.50
43697;DHT22;29301;47.620;19.560;2023-06-24T08:31:13;26.90;49.00
43697;DHT22;29301;47.620;19.560;2023-06-24T08:33:42;26.80;50.20
43697;DHT22;29301;47.620;19.560;2023-06-24T08:36:08;26.80;50.60
43697;DHT22;29301;47.620;19.560;2023-06-24T08:38:34;26.80;50.20
43697;DHT22;29301;47.620;19.560;2023-06-24T08:41:00;27.00;50.30
43697;DHT22;29301;47.620;19.560;2023-06-24T08:43:25;27.20;50.80
43697;DHT22;29301;47.620;19.560;2023-06-24T08:45:51;27.40;47.70
43697;DHT22;29301;47.620;19.560;2023-06-24T08:48:18;27.40;47.60
43697;DHT22;29301;47.620;19.560;2023-06-24T08:50:48;27.40;47.90
43697;DHT22;29301;47.620;19.560;2023-06-24T08:53:16;27.50;48.50
43697;DHT22;29301;47.620;19.560;2023-06-24T08:55:45;27.60;48.40
43697;DHT22;29301;47.620;19.560;2023-06-24T08:58:11;27.70;47.70
43697;DHT22;29301;47.620;19.560;2023-06-24T09:00:37;27.90;47.40
43697;DHT22;29301;47.620;19.560;2023-06-24T09:03:03;27.80;46.20
43697;DHT22;29301;47.620;19.560;2023-06-24T09:05:28;27.90;46.40
43697;DHT22;29301;47.620;19.560;2023-06-24T09:07:54;28.00;47.30
43697;DHT22;29301;47.620;19.560;2023-06-24T09:10:33;28.20;45.40
43697;DHT22;29301;47.620;19.560;2023-06-24T09:13:00;28.20;45.90
43697;DHT22;29301;47.620;19.560;2023-06-24T09:15:32;28.30;46.10
43697;DHT22;29301;47.620;19.560;2023-06-24T09:17:58;28.40;45.60
43697;DHT22;29301;47.620;19.560;2023-06-24T09:20:28;28.40;45.80
43697;DHT22;29301;47.620;19.560;2023-06-24T09:23:04;28.50;45.00
43697;DHT22;29301;47.620;19.560;2023-06-24T09:25:30;28.40;45.30
43697;DHT22;29301;47.620;19.560;2023-06-24T09:28:03;28.40;45.20
43697;DHT22;29301;47.620;19.560;2023-06-24T09:30:29;28.60;45.00
43697;DHT22;29301;47.620;19.560;2023-06-24T09:32:55;28.70;44.20
43697;DHT22;29301;47.620;19.560;2023-06-24T09:35:23;28.80;44.90
43697;DHT22;29301;47.620;19.560;2023-06-24T09:37:56;28.70;44.00
43697;DHT22;29301;47.620;19.560;2023-06-24T09:40:22;28.40;45.60
43697;DHT22;29301;47.620;19.560;2023-06-24T09:42:53;28.70;44.20
43697;DHT22;29301;47.620;19.560;2023-06-24T09:45:29;28.70;45.00
43697;DHT22;29301;47.620;19.560;2023-06-24T09:47:56;28.70;43.80
43697;DHT22;29301;47.620;19.560;2023-06-24T09:50:23;28.40;44.00
43697;DHT22;29301;47.620;19.560;2023-06-24T09:52:50;28.20;44.90
43697;DHT22;29301;47.620;19.560;2023-06-24T09:55:17;28.00;44.60
43697;DHT22;29301;47.620;19.560;2023-06-24T09:57:48;27.80;45.50
43697;DHT22;29301;47.620;19.560;2023-06-24T10:00:19;27.70;45.60
43697;DHT22;29301;47.620;19.560;2023-06-24T10:02:45;27.70;46.90
43697;DHT22;29301;47.620;19.560;2023-06-24T10:05:14;27.90;46.10
43697;DHT22;29301;47.620;19.560;2023-06-24T10:07:40;28.00;45.20
43697;DHT22;29301;47.620;19.560;2023-06-24T10:10:08;28.10;46.00
43697;DHT22;29301;47.620;19.560;2023-06-24T10:12:35;28.10;46.10
43697;DHT22;29301;47.620;19.560;2023-06-24T10:15:01;28.20;45.80
43697;DHT22;29301;47.620;19.560;2023-06-24T10:17:27;28.40;45.60
43697;DHT22;29301;47.620;19.560;2023-06-24T10:19:53;28.60;44.70
43697;DHT22;29301;47.620;19.560;2023-06-24T10:22:23;28.80;44.30
43697;DHT22;29301;47.620;19.560;2023-06-24T10:24:52;28.90;44.10
43697;DHT22;29301;47.620;19.560;2023-06-24T10:27:22;29.00;43.60
43697;DHT22;29301;47.620;19.560;2023-06-24T10:29:49;29.00;43.30
43697;DHT22;29301;47.620;19.560;2023-06-24T10:32:15;28.80;44.10
43697;DHT22;29301;47.620;19.560;2023-06-24T10:34:46;28.90;42.80
43697;DHT22;29301;47.620;19.560;2023-06-24T10:39:58;29.00;43.80
43697;DHT22;29301;47.620;19.560;2023-06-24T10:42:37;29.10;44.00
43697;DHT22;29301;47.620;19.560;2023-06-24T10:47:42;29.40;41.80
43697;DHT22;29301;47.620;19.560;2023-06-24T10:50:10;29.20;42.30
43697;DHT22;29301;47.620;19.560;2023-06-24T10:52:40;29.00;42.80
43697;DHT22;29301;47.620;19.560;2023-06-24T10:55:07;29.00;43.80
43697;DHT22;29301;47.620;19.560;2023-06-24T10:57:33;29.00;43.00
43697;DHT22;29301;47.620;19.560;2023-06-24T10:59:58;29.20;43.20
43697;DHT22;29301;47.620;19.560;2023-06-24T11:02:27;29.30;42.20
43697;DHT22;29301;47.620;19.560;2023-06-24T11:04:55;29.10;42.60
43697;DHT22;29301;47.620;19.560;2023-06-24T11:07:31;28.90;43.10
43697;DHT22;29301;47.620;19.560;2023-06-24T11:10:02;29.00;42.80
43697;DHT22;29301;47.620;19.560;2023-06-24T11:12:34;29.00;43.30
43697;DHT22;29301;47.620;19.560;2023-06-24T11:15:05;29.30;43.30
43697;DHT22;29301;47.620;19.560;2023-06-24T11:17:35;29.50;42.90
43697;DHT22;29301;47.620;19.560;2023-06-24T11:20:06;29.60;41.60
43697;DHT22;29301;47.620;19.560;2023-06-24T11:22:32;29.50;41.40
43697;DHT22;29301;47.620;19.560;2023-06-24T11:24:57;29.30;41.30
43697;DHT22;29301;47.620;19.560;2023-06-24T11:27:29;29.20;42.70
43697;DHT22;29301;47.620;19.560;2023-06-24T11:29:57;29.30;42.10
43697;DHT22;29301;47.620;19.560;2023-06-24T11:32:24;29.40;41.50
43697;DHT22;29301;47.620;19.560;2023-06-24T11:34:50;29.40;42.60
43697;DHT22;29301;47.620;19.560;2023-06-24T11:37:18;29.40;41.90
43697;DHT22;29301;47.620;19.560;2023-06-24T11:39:44;29.50;41.70
43697;DHT22;29301;47.620;19.560;2023-06-24T11:42:11;29.60;40.80
43697;DHT22;29301;47.620;19.560;2023-06-24T11:44:43;29.70;40.60
43697;DHT22;29301;47.620;19.560;2023-06-24T11:47:09;29.70;41.00
43697;DHT22;29301;47.620;19.560;2023-06-24T11:49:55;29.80;40.70
43697;DHT22;29301;47.620;19.560;2023-06-24T11:55:02;30.10;39.10
43697;DHT22;29301;47.620;19.560;2023-06-24T11:57:51;30.20;40.10
43697;DHT22;29301;47.620;19.560;2023-06-24T12:00:30;30.30;40.70
43697;DHT22;29301;47.620;19.560;2023-06-24T12:02:58;30.30;40.60
43697;DHT22;29301;47.620;19.560;2023-06-24T12:05:29;30.50;39.30
43697;DHT22;29301;47.620;19.560;2023-06-24T12:07:56;30.40;38.80
43697;DHT22;29301;47.620;19.560;2023-06-24T12:10:22;30.40;38.60
43697;DHT22;29301;47.620;19.560;2023-06-24T12:12:48;30.30;38.70
43697;DHT22;29301;47.620;19.560;2023-06-24T12:15:14;30.10;39.00
43697;DHT22;29301;47.620;19.560;2023-06-24T12:17:39;30.10;37.10
43697;DHT22;29301;47.620;19.560;2023-06-24T12:20:06;30.20;37.50
43697;DHT22;29301;47.620;19.560;2023-06-24T12:22:33;30.10;37.60
43697;DHT22;29301;47.620;19.560;2023-06-24T12:24:58;30.20;39.40
43697;DHT22;29301;47.620;19.560;2023-06-24T12:27:24;30.20;39.00
43697;DHT22;29301;47.620;19.560;2023-06-24T12:29:49;30.40;39.30
43697;DHT22;29301;47.620;19.560;2023-06-24T12:32:15;30.40;38.10
43697;DHT22;29301;47.620;19.560;2023-06-24T12:34:41;30.60;38.70
43697;DHT22;29301;47.620;19.560;2023-06-24T12:37:06;30.60;37.10
43697;DHT22;29301;47.620;19.560;2023-06-24T12:39:32;30.40;37.80
43697;DHT22;29301;47.620;19.560;2023-06-24T12:41:57;30.20;38.60
43697;DHT22;29301;47.620;19.560;2023-06-24T12:44:23;30.30;37.80
43697;DHT22;29301;47.620;19.560;2023-06-24T12:46:49;30.30;38.00
43697;DHT22;29301;47.620;19.560;2023-06-24T12:49:14;30.30;38.60
43697;DHT22;29301;47.620;19.560;2023-06-24T12:51:40;30.20;38.80
43697;DHT22;29301;47.620;19.560;2023-06-24T12:54:05;30.00;39.20
43697;DHT22;29301;47.620;19.560;2023-06-24T12:56:31;29.80;38.40
43697;DHT22;29301;47.620;19.560;2023-06-24T12:58:57;29.70;39.90
43697;DHT22;29301;47.620;19.560;2023-06-24T13:01:22;29.70;39.80
43697;DHT22;29301;47.620;19.560;2023-06-24T13:03:48;29.60;40.20
43697;DHT22;29301;47.620;19.560;2023-06-24T13:06:14;29.70;41.00
43697;DHT22;29301;47.620;19.560;2023-06-24T13:08:39;29.80;39.80
43697;DHT22;29301;47.620;19.560;2023-06-24T13:11:05;30.00;40.10
43697;DHT22;29301;47.620;19.560;2023-06-24T13:13:31;30.00;39.60
43697;DHT22;29301;47.620;19.560;2023-06-24T13:15:56;30.00;38.80
43697;DHT22;29301;47.620;19.560;2023-06-24T13:18:22;29.90;39.10
43697;DHT22;29301;47.620;19.560;2023-06-24T13:20:47;29.90;39.70
43697;DHT22;29301;47.620;19.560;2023-06-24T13:23:13;29.90;39.80
43697;DHT22;29301;47.620;19.560;2023-06-24T13:25:39;29.90;40.60
43697;DHT22;29301;47.620;19.560;2023-06-24T13:28:05;30.00;40.50
43697;DHT22;29301;47.620;19.560;2023-06-24T13:30:31;30.00;40.50
43697;DHT22;29301;47.620;19.560;2023-06-24T13:32:57;30.10;40.80
43697;DHT22;29301;47.620;19.560;2023-06-24T13:35:23;30.10;40.00
43697;DHT22;29301;47.620;19.560;2023-06-24T13:37:48;30.10;39.60
43697;DHT22;29301;47.620;19.560;2023-06-24T13:40:14;30.10;39.40
43697;DHT22;29301;47.620;19.560;2023-06-24T13:42:40;30.10;39.20
43697;DHT22;29301;47.620;19.560;2023-06-24T13:45:06;30.00;39.40
43697;DHT22;29301;47.620;19.560;2023-06-24T13:47:32;30.10;38.90
43697;DHT22;29301;47.620;19.560;2023-06-24T13:49:57;30.00;38.80
43697;DHT22;29301;47.620;19.560;2023-06-24T13:52:25;29.80;39.70
43697;DHT22;29301;47.620;19.560;2023-06-24T13:54:51;29.90;39.70
43697;DHT22;29301;47.620;19.560;2023-06-24T13:57:17;29.90;39.50
43697;DHT22;29301;47.620;19.560;2023-06-24T13:59:43;29.90;39.80
43697;DHT22;29301;47.620;19.560;2023-06-24T14:02:09;30.10;39.50
43697;DHT22;29301;47.620;19.560;2023-06-24T14:04:35;30.10;39.70
43697;DHT22;29301;47.620;19.560;2023-06-24T14:07:01;30.30;39.00
43697;DHT22;29301;47.620;19.560;2023-06-24T14:09:28;30.40;38.60
43697;DHT22;29301;47.620;19.560;2023-06-24T14:11:54;30.40;38.10
43697;DHT22;29301;47.620;19.560;2023-06-24T14:14:21;30.40;37.70
43697;DHT22;29301;47.620;19.560;2023-06-24T14:16:47;30.40;38.80
43697;DHT22;29301;47.620;19.560;2023-06-24T14:19:12;30.40;37.80
43697;DHT22;29301;47.620;19.560;2023-06-24T14:21:38;30.20;37.70
43697;DHT22;29301;47.620;19.560;2023-06-24T14:24:05;30.20;38.80
43697;DHT22;29301;47.620;19.560;2023-06-24T14:26:32;30.30;38.30
43697;DHT22;29301;47.620;19.560;2023-06-24T14:28:58;30.30;38.00
43697;DHT22;29301;47.620;19.560;2023-06-24T14:31:23;30.20;38.40
43697;DHT22;29301;47.620;19.560;2023-06-24T14:33:49;30.10;37.80
43697;DHT22;29301;47.620;19.560;2023-06-24T14:36:15;29.90;38.80
43697;DHT22;29301;47.620;19.560;2023-06-24T14:38:41;29.80;38.90
43697;DHT22;29301;47.620;19.560;2023-06-24T14:41:08;29.60;39.60
43697;DHT22;29301;47.620;19.560;2023-06-24T14:43:34;29.40;40.10
43697;DHT22;29301;47.620;19.560;2023-06-24T14:46:00;29.40;40.30
43697;DHT22;29301;47.620;19.560;2023-06-24T14:48:25;29.40;40.00
43697;DHT22;29301;47.620;19.560;2023-06-24T14:50:51;29.40;40.00
43697;DHT22;29301;47.620;19.560;2023-06-24T14:53:17;29.30;39.80
43697;DHT22;29301;47.620;19.560;2023-06-24T14:55:42;29.30;40.00
43697;DHT22;29301;47.620;19.560;2023-06-24T14:58:08;29.30;40.40
43697;DHT22;29301;47.620;19.560;2023-06-24T15:00:34;29.30;40.80
43697;DHT22;29301;47.620;19.560;2023-06-24T15:02:59;29.20;40.40
43697;DHT22;29301;47.620;19.560;2023-06-24T15:05:25;29.30;40.40
43697;DHT22;29301;47.620;19.560;2023-06-24T15:07:51;29.30;40.40
43697;DHT22;29301;47.620;19.560;2023-06-24T15:10:16;29.30;40.40
43697;DHT22;29301;47.620;19.560;2023-06-24T15:12:42;29.20;40.70
43697;DHT22;29301;47.620;19.560;2023-06-24T15:15:08;29.10;40.70
43697;DHT22;29301;47.620;19.560;2023-06-24T15:17:34;29.10;40.60
43697;DHT22;29301;47.620;19.560;2023-06-24T15:20:01;28.90;41.20
43697;DHT22;29301;47.620;19.560;2023-06-24T15:22:27;28.90;41.30
43697;DHT22;29301;47.620;19.560;2023-06-24T15:24:53;28.70;41.40
43697;DHT22;29301;47.620;19.560;2023-06-24T15:27:18;28.70;41.90
43697;DHT22;29301;47.620;19.560;2023-06-24T15:29:44;28.50;42.20
43697;DHT22;29301;47.620;19.560;2023-06-24T15:32:10;28.40;42.70